Go Pro

iShares Russell 1000 Growth ETF (IWF) Institutional Ownership

iShares Russell 1000 Growth ETF logo
$123.41 -0.02 (-0.02%)
As of 09/4/2026 04:10 PM Eastern

Institutional Ownership Changes (13F Filings) for iShares Russell 1000 Growth ETF (NYSEARCA:IWF)

Current
Institutional Ownership
Percentage
75.33%
Number of
Institutional Buyers
(last 12 months)
1414
Total
Institutional Inflows
(last 12 months)
$3.59B
Number of
Institutional Sellers
(last 12 months)
1113
Total
Institutional Outflows
(last 12 months)
$1.58B
Get IWF Insider Trade Alerts

Want to know when executives and insiders are buying or selling iShares Russell 1000 Growth ETF stock? Sign up for InsiderTrades.com's daily newsletter to get the latest insider transactions delivered to your inbox daily.

SMS is currently available in Australia, Belgium, Canada, France, Germany, Ireland, Italy, New Zealand, the Netherlands, Singapore, South Africa, Spain, Switzerland, the United Kingdom, and the United States. By entering your phone number and clicking the sign-up button, you agree to receive periodic text messages from MarketBeat at the phone number you submitted, including texts that may be sent using an automatic telephone dialing system. Message and data rates may apply. Message frequency will vary. Messages will consist of stock alerts, news stories, and partner advertisements/offers. Consent is not a condition of the purchase of any goods or services. Text HELP for help/customer support. Unsubscribe at any time by replying "STOP" to any text message that you receive from MarketBeat or by visiting our mailing preferences page. Read our full terms of service and privacy policy.
Skip Chart & View Institutional Buying and Selling Data

IWF Institutional Buying and Selling by Quarter

iShares Russell 1000 Growth ETF Major Shareholders & Ownership History

Reporting DateMajor Shareholder NameShares HeldMarket Value% of PortfolioQuarterly Change in SharesOwnership in CompanyDetails
9/4/2026 Parkside Financial Bank & Trust296,339$36.80M2.5%+289.6%0.029%
9/2/2026 MLG Wealth Management DBA Pine Grove Financial Group10,077$1.25M0.1%+305.3%0.001%
9/2/2026 Kinetic Wealth Investment Advisors LLC1,850$230K0.1%N/A0.000%
9/2/2026 Range Advisory LLC5,859$728K0.1%+323.6%0.001%
9/2/2026 Allianz Asset Management GmbH139,435$17.31M0.0%+615.1%0.014%
9/2/2026 Brown Lisle Cummings Inc.16,324$2.03M0.4%+300.0%0.002%
8/28/2026 Cornerstone Financial Management LLC2,696$335K0.3%+290.2%0.000%
8/27/2026 Corient Private Wealth LP892,775$110.86M0.2%+31.9%0.087%
8/26/2026 HORAN Wealth LLC33,160$4.12M0.5%+101.4%0.003%
8/26/2026 Schulz Wealth LTD.4,404$547K0.3%N/A0.000%
8/26/2026 Wellington Grp LLC12,208$1.52M0.4%+296.8%0.001%
8/25/2026 Advus Financial Partners LLC13,009$1.62M0.4%+300.0%0.001%
8/25/2026 Tobias Financial Advisors Inc.98,443$12.22M1.5%+285.3%0.010%
8/25/2026 Kingsbury Capital Investment Advisors LLC1,759$218K0.2%N/A0.000%
8/25/2026 Financial Insights Inc.6,225$773K0.2%+277.5%0.001%
8/24/2026 Strategic Financial Services Inc.9,239$1.15M0.1%+296.4%0.001%
8/23/2026 Tanager Wealth Management LLP3,536$439K0.0%+281.0%0.000%
8/23/2026 Atlantic Private Wealth LLC1,060$132K0.1%+300.0%0.000%
8/23/2026 Washington Trust Advisors Inc.7,969$989K0.1%+311.4%0.001%
8/23/2026 Ameritas Advisory Services LLC708,413$87.96M1.8%+654.2%0.069%
8/23/2026 Guardian Wealth Advisors LLC NC3,488$433K0.0%+296.4%0.000%
8/23/2026 Henrickson Nauta Wealth Advisors Inc.8,328$1.03M0.3%+330.4%0.001%
8/23/2026 Wedmont Private Capital11,215$1.39M0.0%+308.9%0.001%
8/23/2026 Kintra Wealth LLC35,459$4.46M0.2%+385.9%0.003%
8/23/2026 Morling Financial Advisors LLC1,228$152K0.0%+300.0%0.000%
8/23/2026 Anson Capital Inc.8,800$1.09M0.7%+300.0%0.001%
8/23/2026 Aspire Capital Advisors LLC4,896$608K0.1%+300.0%0.000%
8/23/2026 Andrews Lucia Wealth Management LLC2,846$353K0.2%+300.3%0.000%
8/23/2026 Widmann Financial Services Inc.58,788$7.30M3.9%+315.6%0.006%
8/23/2026 Midwest Heritage Bank FSB1,702$211K0.1%N/A0.000%
8/23/2026 SFG Wealth Management LLC.7,186$892K0.3%+220.8%0.001%
8/23/2026 Insight Inv LLC17,790$2.21M1.0%+282.7%0.002%
8/23/2026 Operose Advisors LLC8,124$1.01M0.2%+255.7%0.001%
8/23/2026 HB Wealth Management LLC433,358$53.81M0.3%+308.6%0.042%
8/23/2026 Nilsine Partners LLC2,024$251K0.0%+300.0%0.000%
8/23/2026 Northeast Planning Associates INC. NH23,170$2.70M2.0%+291.5%0.002%
8/23/2026 Nvest Financial LLC160,871$19.98M6.3%+292.3%0.016%
8/23/2026 Asset Allocation Strategies LLC4,888$607K0.1%+244.0%0.000%
8/23/2026 Fortitude Advisory Group L.L.C.1,640$204K0.1%N/A0.000%
8/23/2026 Angeles Wealth Management LLC25,793$3.20M0.1%+297.6%0.003%
They're not buying gold. They're buying this. (Ad)

Bank of America raised its stake in a small gold company by 139%. Jane Street increased its position by 159%, and Millennium by 122%. Kopernik Global made it their largest holding, owning roughly 8% of the company. It holds rights to an 88 million ounce deposit with existing roads, power, and permits that never expire. Market cap sits near $4 billion against a deposit worth hundreds of billions at current gold prices.tc pixel

See the name, ticker, and full file now
8/23/2026 Azimuth Capital Investment Management LLC27,856$3.46M0.1%+293.5%0.003%
8/23/2026 Riverview Capital Advisers LLC12,075$1.50M0.4%+286.0%0.001%
8/23/2026 Kaydan Wealth Management Inc.8,248$1.02M0.3%+299.8%0.001%
8/22/2026 Advisory Solutions Group LLC8,271$1.03M0.3%N/A0.001%
8/22/2026 XP Advisory US Inc.308$38K0.0%N/A0.000%
8/22/2026 Rose Capital Advisors LLC5,955$739K0.4%N/A0.001%
8/22/2026 Compass Financial Management LLC4,746$590K0.1%N/A0.000%
8/22/2026 NBH Bank125,562$15.59M6.6%N/A0.012%
8/22/2026 Gainline Financial Partners LLC74,202$9.21M8.6%N/A0.007%
8/22/2026 MW Advisory LLC12,710$1.58M0.6%N/A0.001%
8/22/2026 Maloon Powers Pitre Higgins & Dennehy LLC86,473$10.74M3.7%N/A0.008%
8/22/2026 Old Mission Investment Co LLC21,426$2.66M0.6%N/A0.002%
8/22/2026 Highland Investment Advisors LLC98,010$12.17M5.3%N/A0.010%
8/22/2026 TOP Private Wealth LLC.3,894$483K0.5%N/A0.000%
8/22/2026 Strive Financial Group LLC31,507$3.91M1.7%+1,353.3%0.003%
8/22/2026 Invested Advisors25,091$3.12M2.8%+270.3%0.002%
8/22/2026 MOR Wealth Management LLC192,949$23.96M9.6%+261.0%0.019%
8/22/2026 Formulate Financial LLC26,141$3.25M3.4%+298.5%0.003%
8/22/2026 Aureum Wealth Management LLC35,867$4.45M2.8%+342.0%0.004%
8/22/2026 Elevation Wealth Management LLC6,602$820K0.6%+215.0%0.001%
8/22/2026 BAM Wealth Management LLC3,653$454K0.3%+563.0%0.000%
8/22/2026 Box Hill Private Wealth LLC3,880$482K0.4%+300.4%0.000%
8/22/2026 Cornerstone Advisors Asset Management LLC60,700$7.54M1.0%+288.6%0.006%
8/22/2026 Jim Saulnier & Associates LLC4,799$596K0.3%+299.9%0.000%
8/22/2026 Retirement Wealth Solutions LLC2,784$346K0.2%+361.7%0.000%
8/22/2026 Nabity Jensen Investment Management Inc7,447$925K0.6%+285.7%0.001%
8/22/2026 Comprehensive Financial Planning Inc. PA577$72K0.0%+300.7%0.000%
8/22/2026 Investor s Fiduciary Advisor Network LLC3,310$411K0.1%+292.6%0.000%
8/22/2026 Legacy Wealth Managment LLC ID1,692$210K0.1%+300.0%0.000%
8/22/2026 NWF Advisory Services Inc.5,990$744K0.1%+288.2%0.001%
8/22/2026 Tassel Capital Management Inc.20,162$2.50M1.2%+300.0%0.002%
8/22/2026 TD Waterhouse Canada Inc.33,750$4.15M0.0%+314.5%0.003%
8/22/2026 Premier Path Wealth Partners LLC28,890$3.59M0.4%+294.6%0.003%
8/22/2026 United Community Bank2,359$293K0.1%+555.3%0.000%
8/22/2026 Lakeshore Financial Planning Inc.3,108$386K0.1%+300.0%0.000%
8/22/2026 Concurrent Investment Advisors LLC348,273$43.25M0.4%+467.1%0.034%
8/22/2026 Power Wealth Management LLC6,911$858K0.3%+303.0%0.001%
8/22/2026 Allen Mooney & Barnes Investment Advisors LLC4,838$601K0.1%+300.5%0.000%
8/21/2026 Montz Harcus Wealth Management LLC2,525$314K0.1%+300.2%0.000%
8/21/2026 High Net Worth Advisory Group LLC3,136$389K0.1%+300.0%0.000%
8/21/2026 Retireful LLC3,553$441K0.4%+320.0%0.000%
8/21/2026 Lowery Thomas LLC50,685$6.29M3.0%+264.3%0.005%
8/21/2026 Strengthening Families & Communities LLC3,092$384K0.1%+300.0%0.000%
8/21/2026 Smallwood Wealth Investment Management LLC600$75K0.0%+300.0%0.000%
8/21/2026 Beacon Capital Management LLC9,874$1.23M0.2%+311.2%0.001%
8/21/2026 Greenspring Advisors LLC66,875$8.30M0.5%+291.8%0.007%
8/21/2026 Mayport LLC32,560$4.04M0.6%+300.0%0.003%
8/21/2026 Rodgers & Associates LTD490,509$60.91M4.6%+293.6%0.048%
8/21/2026 Continuum Advisory LLC884$110K0.0%N/A0.000%
8/21/2026 Orion Capital Management LLC4,040$502K0.2%+299.2%0.000%
They're not buying gold. They're buying this. (Ad)

Bank of America raised its stake in a small gold company by 139%. Jane Street increased its position by 159%, and Millennium by 122%. Kopernik Global made it their largest holding, owning roughly 8% of the company. It holds rights to an 88 million ounce deposit with existing roads, power, and permits that never expire. Market cap sits near $4 billion against a deposit worth hundreds of billions at current gold prices.tc pixel

See the name, ticker, and full file now
8/21/2026 Round Rock Advisors LLC3,848$478K0.1%+382.2%0.000%
8/21/2026 Alamar Capital Management LLC18,502$2.30M1.2%+278.0%0.002%
8/21/2026 Twin Lakes Capital Management LLC536$67K0.0%+300.0%0.000%
8/21/2026 Coppell Advisory Solutions LLC4,268$530K0.1%N/A0.000%
8/21/2026 Emergent Wealth Advisors LLC3,093$384K0.2%+300.1%0.000%
8/21/2026 PFG Private Wealth Management LLC2,004$249K0.1%+254.1%0.000%
8/21/2026 Atticus Wealth Management LLC204,824$25.43M6.1%+302.6%0.020%
8/21/2026 SkyOak Wealth LLC3,219$400K0.1%+376.9%0.000%
8/21/2026 XML Financial LLC281,379$34.94M2.5%+296.1%0.027%
8/21/2026 Beacon Financial Advisory LLC16,362$2.03M0.4%+260.9%0.002%


IWF Institutional Ownership - Frequently Asked Questions

During the previous two years, 2,605 institutional investors and hedge funds held shares of iShares Russell 1000 Growth ETF. The most heavily invested institutionals were Morgan Stanley ($13.08B), Bank of America Corp DE ($11.80B), Kingstone Capital Partners Texas LLC ($7.58B), FMR LLC ($3.80B), JPMorgan Chase & Co. ($3.55B), Goldman Sachs Group Inc. ($3.30B), and Northern Trust Corp ($2.63B).Learn more on iShares Russell 1000 Growth ETF's institutional investors.

75.33% of iShares Russell 1000 Growth ETF's stock is owned by institutional investors. Learn more on IWF's institutional investor holdings.

Of the 2,168 institutional investors that purchased iShares Russell 1000 Growth ETF's stock in the last 24 months, the following investors and hedge funds have bought the highest volume of shares: Kingstone Capital Partners Texas LLC ($17.85M), International Assets Investment Management LLC ($3.60M), GAMMA Investing LLC ($3.55M), Raymond James Financial Inc. ($3.50M), Wellington Management Group LLP ($1.73M), Laurel Wealth Advisors LLC ($1.70M), and Focus Partners Wealth ($1.68M).

Institutional investors have bought a total of 30,021,964 shares in the last 24 months. This purchase volume represents approximately $3.59B in transactions.

Of the 1,113 institutional investors that sold iShares Russell 1000 Growth ETF's stock in the last 24 months, the following investors and hedge funds have sold the highest volume of shares: M&T Bank Corp ($2.53M), Laurel Wealth Advisors LLC ($1.70M), Corient Private Wealth LLC ($824.54K), Kovitz Investment Group Partners LLC ($623.79K), Northwestern Mutual Wealth Management Co. ($615.74K), Two Sigma Investments LP ($527.24K), and Price T Rowe Associates Inc. MD ($479.18K).

Institutional investors have sold a total of 13,576,337 shares in the last 24 months. This volume of shares sold represents approximately $1.58B in transactions.



Institutional ownership data for NYSEARCA:IWF is compiled from quarterly 13F filings submitted to the U.S. Securities and Exchange Commission (SEC), with the most recent received on 9/4/2026. New 13F filings are added each quarter as they're published.
From Our Partners